createdAt,value
2019-05-06T00:00:05.641Z,101398.38
2019-05-06T00:02:37.003Z,101393.89
2019-05-06T00:05:07.350Z,101398.02
2019-05-06T00:07:37.129Z,101398.19
2019-05-06T00:10:08.306Z,101385.34
2019-05-06T00:12:37.955Z,101393.31
2019-05-06T00:15:07.764Z,101395.76
2019-05-06T00:17:37.462Z,101382.76
2019-05-06T00:20:07.289Z,101394.24
2019-05-06T00:22:36.970Z,101388.64
2019-05-06T00:25:11.733Z,101388.81
2019-05-06T00:28:00.103Z,101385.36
2019-05-06T00:30:31.063Z,101392.71
2019-05-06T00:33:00.889Z,101385.98
2019-05-06T00:35:30.571Z,101390.73
2019-05-06T00:38:00.237Z,101384.78
2019-05-06T00:40:34.427Z,101386.87
2019-05-06T00:43:05.909Z,101390.09
2019-05-06T00:45:35.701Z,101390.30
2019-05-06T00:48:05.460Z,101390.61
2019-05-06T00:50:35.210Z,101393.75
2019-05-06T00:53:06.998Z,101396.20
2019-05-06T00:55:36.704Z,101396.51
2019-05-06T00:58:06.496Z,101392.38
2019-05-06T01:00:38.519Z,101392.13
2019-05-06T01:03:08.204Z,101389.07
2019-05-06T01:05:37.963Z,101397.94
2019-05-06T01:08:07.743Z,101396.56
2019-05-06T01:10:37.493Z,101398.09
2019-05-06T01:13:20.347Z,101394.98
2019-05-06T01:15:50.023Z,101397.43
2019-05-06T01:18:19.839Z,101394.59
2019-05-06T01:20:51.174Z,101389.08
2019-05-06T01:23:23.465Z,101384.40
2019-05-06T01:25:54.566Z,101386.11
2019-05-06T01:28:24.558Z,101386.33
2019-05-06T01:30:54.151Z,101391.28
2019-05-06T01:33:24.221Z,101387.16
2019-05-06T01:35:54.262Z,101390.36
2019-05-06T01:38:29.360Z,101388.47
2019-05-06T01:41:27.535Z,101389.38
2019-05-06T01:43:57.275Z,101390.61
2019-05-06T01:46:27.027Z,101390.55
2019-05-06T01:48:56.898Z,101396.27
2019-05-06T01:51:26.564Z,101393.12
2019-05-06T01:53:56.199Z,101395.81
2019-05-06T01:56:25.860Z,101399.64
2019-05-06T01:58:55.508Z,101403.77
2019-05-06T02:01:25.291Z,101406.52
2019-05-06T02:03:54.914Z,101405.97
2019-05-06T02:06:25.105Z,101402.45
2019-05-06T02:08:54.996Z,101402.23
2019-05-06T02:11:25.022Z,101401.31
2019-05-06T02:13:54.688Z,101405.45
2019-05-06T02:16:24.473Z,101402.39
2019-05-06T02:18:54.197Z,101402.08
2019-05-06T02:21:43.854Z,101398.72
2019-05-06T02:24:19.454Z,101395.81
2019-05-06T02:26:49.152Z,101400.86
2019-05-06T02:29:20.985Z,101402.39
2019-05-06T02:32:21.019Z,101399.33
2019-05-06T02:34:55.969Z,101400.09
2019-05-06T02:37:31.315Z,101395.66
2019-05-06T02:40:03.994Z,101391.89
2019-05-06T02:42:33.751Z,101395.10
2019-05-06T02:45:04.204Z,101393.33
2019-05-06T02:47:53.544Z,101393.57
2019-05-06T02:50:24.041Z,101386.29
2019-05-06T02:52:53.922Z,101385.16
2019-05-06T02:55:24.609Z,101384.40
2019-05-06T02:57:54.286Z,101387.21
2019-05-06T03:00:24.053Z,101392.71
2019-05-06T03:02:54.285Z,101388.59
2019-05-06T03:05:24.186Z,101385.07
2019-05-06T03:07:57.104Z,101390.88
2019-05-06T03:10:25.182Z,101382.56
2019-05-06T03:12:54.866Z,101390.42
2019-05-06T03:15:24.527Z,101393.63
2019-05-06T03:17:55.468Z,101387.75
2019-05-06T03:21:03.955Z,101393.56
2019-05-06T03:23:37.116Z,101387.50
2019-05-06T03:26:07.118Z,101394.94
2019-05-06T03:28:37.007Z,101399.98
2019-05-06T03:31:08.161Z,101392.55
2019-05-06T03:33:54.971Z,101398.91
2019-05-06T03:36:18.451Z,101399.37
2019-05-06T03:38:43.226Z,101400.34
2019-05-06T03:41:14.087Z,101395.70
2019-05-06T03:43:44.853Z,101398.14
2019-05-06T03:46:28.070Z,101395.30
2019-05-06T03:49:03.604Z,101403.51
2019-05-06T03:51:34.245Z,101398.47
2019-05-06T03:54:04.576Z,101395.56
2019-05-06T03:56:36.682Z,101395.51
2019-05-06T03:59:08.218Z,101392.66
2019-05-06T04:01:38.275Z,101393.22
2019-05-06T04:04:07.956Z,101393.73
2019-05-06T04:06:38.059Z,101394.27
2019-05-06T04:09:07.832Z,101390.11
2019-05-06T04:11:38.901Z,101390.41
2019-05-06T04:14:13.693Z,101381.55
2019-05-06T04:16:53.131Z,101384.81
2019-05-06T04:19:43.703Z,101388.25
2019-05-06T04:22:27.930Z,101388.19
2019-05-06T04:25:23.351Z,101384.60
2019-05-06T04:27:55.272Z,101395.28
2019-05-06T04:30:25.290Z,101393.69
2019-05-06T04:32:55.295Z,101386.95
2019-05-06T04:35:25.051Z,101392.94
2019-05-06T04:37:54.772Z,101389.93
2019-05-06T04:40:24.522Z,101387.16
2019-05-06T04:42:55.248Z,101389.34
2019-05-06T04:45:24.919Z,101388.75
2019-05-06T04:47:54.577Z,101392.77
2019-05-06T04:50:24.529Z,101388.56
2019-05-06T04:53:04.731Z,101388.45
2019-05-06T04:55:35.207Z,101387.84
2019-05-06T04:58:06.384Z,101381.16
2019-05-06T05:00:36.555Z,101384.51
2019-05-06T05:03:07.554Z,101385.19
2019-05-06T05:05:37.385Z,101382.04
2019-05-06T05:08:07.052Z,101382.25
2019-05-06T05:10:46.693Z,101380.20
2019-05-06T05:13:37.997Z,101383.05
2019-05-06T05:16:22.127Z,101382.02
2019-05-06T05:18:58.791Z,101376.17
2019-05-06T05:21:28.553Z,101375.90
2019-05-06T05:23:58.397Z,101379.27
2019-05-06T05:26:28.837Z,101369.21
2019-05-06T05:28:58.503Z,101377.82
2019-05-06T05:31:28.341Z,101370.50
2019-05-06T05:33:58.155Z,101375.81
2019-05-06T05:36:28.005Z,101369.05
2019-05-06T05:38:57.745Z,101369.17
2019-05-06T05:41:27.799Z,101366.33
2019-05-06T05:44:04.769Z,101371.38
2019-05-06T05:46:34.494Z,101369.72
2019-05-06T05:49:42.440Z,101369.94
2019-05-06T05:52:22.534Z,101366.80
2019-05-06T05:55:07.098Z,101366.02
2019-05-06T05:57:38.476Z,101360.31
2019-05-06T06:00:08.898Z,101367.19
2019-05-06T06:02:38.636Z,101372.66
2019-05-06T06:05:08.541Z,101367.44
2019-05-06T06:07:38.548Z,101373.51
2019-05-06T06:10:36.608Z,101375.58
2019-05-06T06:13:06.422Z,101366.20
2019-05-06T06:15:47.254Z,101375.08
2019-05-06T06:18:24.706Z,101369.22
2019-05-06T06:21:17.318Z,101366.02
2019-05-06T06:23:38.049Z,101369.27
2019-05-06T06:26:07.751Z,101362.27
2019-05-06T06:28:37.688Z,101366.72
2019-05-06T06:31:33.299Z,101362.19
2019-05-06T06:34:09.423Z,101361.38
2019-05-06T06:37:07.040Z,101360.88
2019-05-06T06:39:42.613Z,101356.41
2019-05-06T06:42:12.763Z,101352.88
2019-05-06T06:44:42.999Z,101352.25
2019-05-06T06:47:13.111Z,101342.86
2019-05-06T06:49:44.143Z,101333.69
2019-05-06T06:52:14.978Z,101340.09
2019-05-06T06:54:45.045Z,101345.78
2019-05-06T06:57:27.599Z,101336.17
2019-05-06T07:00:04.097Z,101334.00
2019-05-06T07:02:43.250Z,101337.90
2019-05-06T07:05:28.118Z,101315.98
2019-05-06T07:07:55.300Z,101334.03
2019-05-06T07:10:43.237Z,101329.05
2019-05-06T07:13:18.300Z,101331.13
2019-05-06T07:15:47.955Z,101334.07
2019-05-06T07:18:17.631Z,101329.58
2019-05-06T07:21:05.364Z,101331.91
2019-05-06T07:23:35.599Z,101336.13
2019-05-06T07:26:05.456Z,101317.67
2019-05-06T07:28:35.125Z,101320.33
2019-05-06T07:31:20.856Z,101318.68
2019-05-06T07:33:36.405Z,101319.13
2019-05-06T07:36:06.164Z,101317.73
2019-05-06T07:38:35.822Z,101314.40
2019-05-06T07:41:14.470Z,101309.70
2019-05-06T07:44:04.509Z,101322.00
2019-05-06T07:46:48.226Z,101310.07
2019-05-06T07:49:17.991Z,101322.22
2019-05-06T07:51:47.775Z,101325.18
2019-05-06T07:54:17.464Z,101324.53
2019-05-06T07:56:48.006Z,101326.44
2019-05-06T07:59:23.583Z,101326.08
2019-05-06T08:01:54.196Z,101333.73
2019-05-06T08:04:24.143Z,101322.27
2019-05-06T08:06:53.811Z,101323.38
2019-05-06T08:09:23.559Z,101330.77
2019-05-06T08:11:53.234Z,101331.84
2019-05-06T08:14:43.178Z,101325.70
2019-05-06T08:17:33.054Z,101318.34
2019-05-06T08:20:02.906Z,101330.11
2019-05-06T08:22:56.509Z,101298.83
2019-05-06T08:25:25.681Z,101314.59
2019-05-06T08:27:55.364Z,101321.55
2019-05-06T08:30:25.113Z,101321.05
2019-05-06T08:32:54.767Z,101326.67
2019-05-06T08:35:24.494Z,101316.70
2019-05-06T08:37:54.166Z,101303.36
2019-05-06T08:40:26.469Z,101307.00
2019-05-06T08:42:55.242Z,101303.50
2019-05-06T08:45:24.980Z,101298.44
2019-05-06T08:47:54.642Z,101300.84
2019-05-06T08:50:46.192Z,101305.13
2019-05-06T08:53:46.858Z,101323.29
2019-05-06T08:56:19.358Z,101318.55
2019-05-06T08:58:49.291Z,101300.76
2019-05-06T09:01:29.852Z,101314.74
2019-05-06T09:04:11.423Z,101311.07
2019-05-06T09:06:34.187Z,101302.33
2019-05-06T09:09:02.599Z,101312.76
2019-05-06T09:11:33.937Z,101306.98
2019-05-06T09:14:03.670Z,101308.20
2019-05-06T09:16:33.450Z,101308.19
2019-05-06T09:19:04.696Z,101306.77
2019-05-06T09:21:35.574Z,101302.75
2019-05-06T09:24:05.748Z,101305.98
2019-05-06T09:26:43.093Z,101287.70
2019-05-06T09:29:17.404Z,101277.31
2019-05-06T09:31:52.064Z,101283.44
2019-05-06T09:34:29.715Z,101291.59
2019-05-06T09:37:13.409Z,101298.91
2019-05-06T09:39:47.752Z,101300.66
2019-05-06T09:42:17.840Z,101297.36
2019-05-06T09:44:50.409Z,101296.09
2019-05-06T09:47:42.428Z,101288.09
2019-05-06T09:50:15.588Z,101293.09
2019-05-06T09:52:45.325Z,101284.81
2019-05-06T09:55:36.831Z,101276.50
2019-05-06T09:58:07.642Z,101272.41
2019-05-06T10:00:42.932Z,101266.34
2019-05-06T10:03:12.923Z,101262.28
2019-05-06T10:05:42.709Z,101259.66
2019-05-06T10:08:12.671Z,101261.64
2019-05-06T10:10:56.226Z,101264.73
2019-05-06T10:13:14.723Z,101275.86
2019-05-06T10:15:44.547Z,101272.80
2019-05-06T10:18:15.457Z,101275.42
2019-05-06T10:20:46.191Z,101277.68
2019-05-06T10:23:16.213Z,101275.89
2019-05-06T10:25:46.036Z,101279.47
2019-05-06T10:28:36.341Z,101275.06
2019-05-06T10:31:08.637Z,101273.82
2019-05-06T10:33:57.347Z,101273.08
2019-05-06T10:36:32.562Z,101266.02
2019-05-06T10:39:07.407Z,101274.28
2019-05-06T10:41:42.231Z,101276.06
2019-05-06T10:44:36.154Z,101276.88
2019-05-06T10:47:05.910Z,101268.63
2019-05-06T10:49:35.574Z,101271.80
2019-05-06T10:52:17.434Z,101268.44
2019-05-06T10:54:47.090Z,101266.15
2019-05-06T10:57:27.029Z,101257.46
2019-05-06T10:59:56.773Z,101265.20
2019-05-06T11:02:43.928Z,101250.42
2019-05-06T11:05:14.457Z,101254.15
2019-05-06T11:07:44.191Z,101268.52
2019-05-06T11:10:24.294Z,101258.49
2019-05-06T11:12:45.577Z,101256.82
2019-05-06T11:15:15.906Z,101259.05
2019-05-06T11:17:45.684Z,101254.17
2019-05-06T11:20:15.424Z,101236.37
2019-05-06T11:22:45.102Z,101236.70
2019-05-06T11:25:14.951Z,101242.45
2019-05-06T11:27:45.310Z,101226.80
2019-05-06T11:30:24.814Z,101238.74
2019-05-06T11:33:05.985Z,101225.43
2019-05-06T11:36:09.734Z,101236.11
2019-05-06T11:38:39.430Z,101236.27
2019-05-06T11:44:58.951Z,101233.78
2019-05-06T11:47:28.644Z,101232.82
2019-05-06T11:49:58.870Z,101222.77
2019-05-06T11:52:28.557Z,101213.13
2019-05-06T11:54:59.052Z,101219.56
2019-05-06T11:57:28.748Z,101215.30
2019-05-06T11:59:58.421Z,101214.11
2019-05-06T12:02:28.767Z,101214.17
2019-05-06T12:04:58.429Z,101209.80
2019-05-06T12:07:28.177Z,101206.23
2019-05-06T12:09:57.849Z,101207.83
2019-05-06T12:12:27.529Z,101217.31
2019-05-06T12:14:57.207Z,101206.95
2019-05-06T12:17:26.874Z,101212.84
2019-05-06T12:19:56.564Z,101215.67
2019-05-06T12:22:35.653Z,101216.94
2019-05-06T12:25:11.425Z,101222.37
2019-05-06T12:27:44.547Z,101216.73
2019-05-06T12:30:23.060Z,101210.78
2019-05-06T12:33:13.094Z,101210.58
2019-05-06T12:35:47.025Z,101202.72
2019-05-06T12:38:27.432Z,101197.52
2019-05-06T12:40:54.072Z,101190.95
2019-05-06T12:43:46.406Z,101181.25
2019-05-06T12:46:23.095Z,101188.79
2019-05-06T12:48:52.795Z,101193.33
2019-05-06T12:51:22.803Z,101205.18
2019-05-06T12:53:53.066Z,101205.38
2019-05-06T12:56:22.870Z,101211.33
2019-05-06T12:58:52.706Z,101216.23
2019-05-06T13:01:22.524Z,101215.18
2019-05-06T13:03:52.675Z,101223.80
2019-05-06T13:06:26.407Z,101232.42
2019-05-06T13:09:01.309Z,101228.39
2019-05-06T13:11:25.477Z,101230.36
2019-05-06T13:14:00.411Z,101229.89
2019-05-06T13:16:26.755Z,101238.94
2019-05-06T13:18:56.416Z,101233.95
2019-05-06T13:21:26.633Z,101247.91
2019-05-06T13:24:02.447Z,101248.20
2019-05-06T13:26:32.674Z,101241.57
2019-05-06T13:29:08.015Z,101246.20
2019-05-06T13:31:37.907Z,101248.25
2019-05-06T13:34:12.211Z,101257.34
2019-05-06T13:36:42.841Z,101260.26
2019-05-06T13:39:14.990Z,101247.80
2019-05-06T13:41:45.579Z,101250.09
2019-05-06T13:44:58.460Z,101270.45
2019-05-06T13:47:45.626Z,101275.18
2019-05-06T13:50:29.978Z,101286.55
2019-05-06T13:53:09.128Z,101295.59
2019-05-06T13:55:35.633Z,101298.70
2019-05-06T13:58:05.672Z,101299.27
2019-05-06T14:00:36.490Z,101302.60
2019-05-06T14:03:06.399Z,101301.50
2019-05-06T14:05:36.073Z,101304.57
2019-05-06T14:08:05.727Z,101298.99
2019-05-06T14:10:35.414Z,101306.48
2019-05-06T14:13:05.227Z,101302.80
2019-05-06T14:15:34.936Z,101295.23
2019-05-06T14:18:04.678Z,101295.73
2019-05-06T14:20:34.355Z,101304.41
2019-05-06T14:23:04.090Z,101304.70
2019-05-06T14:25:52.868Z,101310.32
2019-05-06T14:28:28.361Z,101313.11
2019-05-06T14:31:04.455Z,101314.50
2019-05-06T14:33:34.118Z,101303.86
2019-05-06T14:36:04.393Z,101306.89
2019-05-06T14:38:34.049Z,101305.28
2019-05-06T14:41:13.129Z,101307.19
2019-05-06T14:43:43.017Z,101308.64
2019-05-06T14:47:07.072Z,101310.83
2019-05-06T14:49:36.721Z,101308.04
2019-05-06T14:52:06.389Z,101314.81
2019-05-06T14:58:04.557Z,101324.89
2019-05-06T15:00:34.279Z,101326.86
2019-05-06T15:03:04.023Z,101313.77
2019-05-06T15:05:36.190Z,101318.52
2019-05-06T15:08:05.216Z,101321.55
2019-05-06T15:10:34.925Z,101319.02
2019-05-06T15:13:04.695Z,101322.64
2019-05-06T15:15:34.423Z,101323.20
2019-05-06T15:18:04.092Z,101326.83
2019-05-06T15:20:34.295Z,101324.33
2019-05-06T15:23:04.568Z,101324.08
2019-05-06T15:25:34.483Z,101328.25
2019-05-06T15:28:04.200Z,101313.78
2019-05-06T15:30:43.539Z,101324.34
2019-05-06T15:33:14.693Z,101348.86
2019-05-06T15:36:02.229Z,101351.90
2019-05-06T15:38:31.060Z,101365.22
2019-05-06T15:41:00.841Z,101353.14
2019-05-06T15:43:33.214Z,101354.91
2019-05-06T15:46:03.308Z,101359.30
2019-05-06T15:48:33.175Z,101365.84
2019-05-06T15:51:02.859Z,101371.15
2019-05-06T15:53:33.202Z,101371.34
2019-05-06T15:56:02.898Z,101365.08
2019-05-06T15:58:32.930Z,101366.66
2019-05-06T16:01:03.335Z,101369.42
2019-05-06T16:03:33.557Z,101365.98
2019-05-06T16:06:03.376Z,101353.50
2019-05-06T16:08:33.063Z,101356.41
2019-05-06T16:11:03.019Z,101352.05
2019-05-06T16:13:32.745Z,101355.39
2019-05-06T16:16:03.046Z,101355.52
2019-05-06T16:18:37.042Z,101351.42
2019-05-06T16:21:06.686Z,101342.63
2019-05-06T16:23:42.350Z,101352.13
2019-05-06T16:26:13.199Z,101344.91
2019-05-06T16:28:45.951Z,101348.78
2019-05-06T16:31:15.687Z,101342.73
2019-05-06T16:33:45.455Z,101349.35
2019-05-06T16:36:15.125Z,101346.80
2019-05-06T16:38:46.323Z,101345.33
2019-05-06T16:41:17.565Z,101342.44
2019-05-06T16:43:47.248Z,101349.30
2019-05-06T16:46:16.992Z,101351.47
2019-05-06T16:48:46.790Z,101351.19
2019-05-06T16:51:16.526Z,101348.05
2019-05-06T16:53:46.337Z,101353.02
2019-05-06T16:56:36.269Z,101349.14
2019-05-06T16:59:06.042Z,101352.69
2019-05-06T17:01:37.854Z,101348.52
2019-05-06T17:04:18.072Z,101351.58
2019-05-06T17:06:47.753Z,101340.72
2019-05-06T17:09:23.726Z,101344.89
2019-05-06T17:11:48.773Z,101340.48
2019-05-06T17:14:18.499Z,101334.36
2019-05-06T17:16:48.237Z,101339.38
2019-05-06T17:19:18.950Z,101333.83
2019-05-06T17:21:48.707Z,101335.98
2019-05-06T17:24:19.389Z,101341.30
2019-05-06T17:26:49.047Z,101334.08
2019-05-06T17:29:24.740Z,101339.95
2019-05-06T17:32:06.993Z,101331.34
2019-05-06T17:34:39.540Z,101330.24
2019-05-06T17:37:28.323Z,101329.71
2019-05-06T17:40:08.161Z,101334.16
2019-05-06T17:42:29.415Z,101337.23
2019-05-06T17:44:59.050Z,101340.28
2019-05-06T17:47:35.306Z,101335.80
2019-05-06T17:50:05.987Z,101333.88
2019-05-06T17:52:35.632Z,101333.30
2019-05-06T17:55:05.711Z,101332.20
2019-05-06T17:57:35.388Z,101334.12
2019-05-06T18:00:32.398Z,101342.48
2019-05-06T18:03:05.029Z,101343.59
2019-05-06T18:05:34.703Z,101346.89
2019-05-06T18:08:07.522Z,101348.81
2019-05-06T18:10:37.521Z,101343.50
2019-05-06T18:13:07.495Z,101349.05
2019-05-06T18:15:38.200Z,101351.30
2019-05-06T18:18:08.095Z,101354.64
2019-05-06T18:20:56.102Z,101352.69
2019-05-06T18:23:25.770Z,101351.87
2019-05-06T18:25:55.439Z,101363.78
2019-05-06T18:28:25.820Z,101359.28
2019-05-06T18:30:55.531Z,101362.87
2019-05-06T18:33:25.348Z,101362.87
2019-05-06T18:35:55.122Z,101363.69
2019-05-06T18:38:24.811Z,101366.75
2019-05-06T18:40:55.391Z,101367.33
2019-05-06T18:43:25.153Z,101365.66
2019-05-06T18:45:54.793Z,101371.25
2019-05-06T18:48:27.790Z,101372.06
2019-05-06T18:50:55.903Z,101366.76
2019-05-06T18:53:25.620Z,101375.89
2019-05-06T18:56:44.689Z,101372.55
2019-05-06T18:59:17.187Z,101375.32
2019-05-06T19:01:46.991Z,101382.53
2019-05-06T19:04:56.838Z,101375.61
2019-05-06T19:07:26.595Z,101383.69
2019-05-06T19:10:05.917Z,101383.94
2019-05-06T19:13:01.980Z,101387.81
2019-05-06T19:15:42.299Z,101391.44
2019-05-06T19:18:12.940Z,101388.66
2019-05-06T19:20:44.488Z,101385.03
2019-05-06T19:23:14.521Z,101393.92
2019-05-06T19:25:44.278Z,101387.51
2019-05-06T19:28:14.282Z,101390.53
2019-05-06T19:30:44.384Z,101383.58
2019-05-06T19:33:14.053Z,101390.81
2019-05-06T19:35:43.813Z,101394.16
2019-05-06T19:38:13.690Z,101391.91
2019-05-06T19:40:43.571Z,101390.81
2019-05-06T19:43:13.405Z,101388.28
2019-05-06T19:45:43.188Z,101388.18
2019-05-06T19:48:13.476Z,101397.77
2019-05-06T19:50:43.739Z,101398.50
2019-05-06T19:53:13.402Z,101391.26
2019-05-06T19:55:46.632Z,101393.98
2019-05-06T19:58:14.716Z,101394.03
2019-05-06T20:00:45.833Z,101387.09
2019-05-06T20:03:16.161Z,101390.11
2019-05-06T20:06:10.335Z,101389.58
2019-05-06T20:08:52.894Z,101394.86
2019-05-06T20:11:33.161Z,101390.25
2019-05-06T20:14:03.139Z,101385.34
2019-05-06T20:16:33.309Z,101385.64
2019-05-06T20:19:03.047Z,101387.60
2019-05-06T20:21:32.986Z,101388.18
2019-05-06T20:24:02.740Z,101387.08
2019-05-06T20:26:32.582Z,101388.52
2019-05-06T20:29:03.534Z,101390.72
2019-05-06T20:31:33.216Z,101389.95
2019-05-06T20:34:03.033Z,101392.81
2019-05-06T20:36:34.083Z,101391.56
2019-05-06T20:39:06.549Z,101387.34
2019-05-06T20:41:36.864Z,101387.11
2019-05-06T20:44:06.637Z,101394.70
2019-05-06T20:46:36.482Z,101383.63
2019-05-06T20:49:06.154Z,101385.57
2019-05-06T20:51:36.733Z,101390.25
2019-05-06T20:54:42.656Z,101389.88
2019-05-06T20:57:14.107Z,101382.89
2019-05-06T20:59:44.074Z,101385.94
2019-05-06T21:02:13.944Z,101385.31
2019-05-06T21:04:43.647Z,101387.47
2019-05-06T21:07:13.332Z,101386.35
2019-05-06T21:09:43.350Z,101387.11
2019-05-06T21:12:13.413Z,101374.91
2019-05-06T21:14:45.748Z,101376.54
2019-05-06T21:17:16.038Z,101383.18
2019-05-06T21:19:45.794Z,101385.13
2019-05-06T21:22:15.530Z,101383.68
2019-05-06T21:24:45.256Z,101385.06
2019-05-06T21:27:29.851Z,101375.88
2019-05-06T21:30:02.516Z,101384.73
2019-05-06T21:32:35.885Z,101388.58
2019-05-06T21:35:07.808Z,101395.46
2019-05-06T21:37:37.485Z,101387.94
2019-05-06T21:40:07.541Z,101391.51
2019-05-06T21:42:37.298Z,101394.47
2019-05-06T21:45:07.284Z,101390.53
2019-05-06T21:47:36.987Z,101396.30
2019-05-06T21:50:06.992Z,101389.59
2019-05-06T21:52:39.742Z,101393.73
2019-05-06T21:55:08.162Z,101395.86
2019-05-06T21:57:37.913Z,101397.53
2019-05-06T22:00:12.658Z,101393.58
2019-05-06T22:02:44.951Z,101393.07
2019-05-06T22:05:15.670Z,101388.33
2019-05-06T22:07:45.371Z,101384.41
2019-05-06T22:10:15.679Z,101394.91
2019-05-06T22:12:45.369Z,101386.02
2019-05-06T22:15:15.742Z,101387.38
2019-05-06T22:17:45.406Z,101383.17
2019-05-06T22:20:15.172Z,101376.54
2019-05-06T22:22:44.877Z,101375.95
2019-05-06T22:25:14.605Z,101379.61
2019-05-06T22:27:44.593Z,101384.05
2019-05-06T22:30:14.643Z,101372.39
2019-05-06T22:32:46.943Z,101377.92
2019-05-06T22:35:17.574Z,101374.06
2019-05-06T22:37:48.221Z,101374.92
2019-05-06T22:40:18.115Z,101379.23
2019-05-06T22:42:47.799Z,101379.75
2019-05-06T22:45:17.712Z,101380.03
2019-05-06T22:47:47.541Z,101379.69
2019-05-06T22:50:17.371Z,101377.19
2019-05-06T22:52:47.093Z,101378.23
2019-05-06T22:55:16.930Z,101380.17
2019-05-06T22:57:46.605Z,101379.00
2019-05-06T23:00:22.475Z,101380.62
2019-05-06T23:02:56.873Z,101381.77
2019-05-06T23:05:26.639Z,101384.03
2019-05-06T23:07:56.446Z,101374.88
2019-05-06T23:10:26.110Z,101372.96
2019-05-06T23:12:55.850Z,101374.05
2019-05-06T23:15:25.507Z,101369.61
2019-05-06T23:18:08.151Z,101371.80
2019-05-06T23:20:37.834Z,101378.36
2019-05-06T23:23:07.490Z,101383.61
2019-05-06T23:25:37.148Z,101382.49
2019-05-06T23:28:06.838Z,101389.04
2019-05-06T23:30:36.481Z,101380.66
2019-05-06T23:33:06.148Z,101384.98
2019-05-06T23:35:35.866Z,101384.98
2019-05-06T23:38:43.020Z,101386.36
2019-05-06T23:41:48.955Z,101384.95
2019-05-06T23:44:54.852Z,101384.60
2019-05-06T23:48:02.551Z,101385.75
2019-05-06T23:51:08.749Z,101385.75
2019-05-06T23:54:15.022Z,101385.98
2019-05-06T23:56:44.363Z,101388.75
2019-05-06T23:59:15.398Z,101384.60
